createdAt,value
2023-03-17T00:00:03.165Z,0.91
2023-03-17T00:03:21.288Z,0.85
2023-03-17T00:09:30.321Z,0.80
2023-03-17T00:12:22.482Z,0.77
2023-03-17T00:15:15.991Z,0.76
2023-03-17T00:18:16.331Z,0.74
2023-03-17T00:21:12.038Z,0.75
2023-03-17T00:24:04.267Z,0.75
2023-03-17T00:26:56.198Z,0.72
2023-03-17T00:29:48.766Z,0.69
2023-03-17T00:32:42.134Z,0.67
2023-03-17T00:35:34.527Z,0.65
2023-03-17T00:38:26.726Z,0.62
2023-03-17T00:41:09.850Z,0.59
2023-03-17T00:44:01.890Z,0.56
2023-03-17T00:46:54.254Z,0.55
2023-03-17T00:49:46.826Z,0.54
2023-03-17T00:52:39.207Z,0.52
2023-03-17T00:55:31.680Z,0.44
2023-03-17T00:58:29.773Z,0.40
2023-03-17T01:01:21.897Z,0.33
2023-03-17T01:04:14.193Z,0.31
2023-03-17T01:07:06.259Z,0.30
2023-03-17T01:09:58.654Z,0.26
2023-03-17T01:12:51.085Z,0.22
2023-03-17T01:15:46.827Z,0.16
2023-03-17T01:18:39.676Z,0.14
2023-03-17T01:21:31.883Z,0.11
2023-03-17T01:24:23.846Z,0.09
2023-03-17T01:27:16.454Z,0.08
2023-03-17T01:30:19.374Z,0.06
2023-03-17T01:33:01.390Z,0.02
2023-03-17T01:35:53.782Z,-0.03
2023-03-17T01:38:47.991Z,-0.06
2023-03-17T01:41:40.468Z,-0.11
2023-03-17T01:44:32.494Z,-0.13
2023-03-17T01:47:26.796Z,-0.14
2023-03-17T01:50:19.537Z,-0.15
2023-03-17T01:53:12.257Z,-0.17
2023-03-17T01:56:06.484Z,-0.20
2023-03-17T01:59:01.169Z,-0.35
2023-03-17T02:01:42.218Z,-0.41
2023-03-17T02:04:35.007Z,-0.41
2023-03-17T02:07:28.131Z,-0.43
2023-03-17T02:10:12.724Z,-0.47
2023-03-17T02:13:01.218Z,-0.49
2023-03-17T02:15:54.444Z,-0.56
2023-03-17T02:18:46.788Z,-0.56
2023-03-17T02:21:45.178Z,-0.59
2023-03-17T02:24:41.469Z,-0.59
2023-03-17T02:27:37.164Z,-0.58
2023-03-17T02:30:29.835Z,-0.61
2023-03-17T02:33:22.044Z,-0.61
2023-03-17T02:36:14.638Z,-0.63
2023-03-17T02:39:07.156Z,-0.64
2023-03-17T02:41:59.228Z,-0.67
2023-03-17T02:44:51.342Z,-0.70
2023-03-17T02:47:43.873Z,-0.73
2023-03-17T02:50:36.390Z,-0.77
2023-03-17T02:53:28.478Z,-0.80
2023-03-17T02:56:20.480Z,-0.80
2023-03-17T02:59:12.744Z,-0.79
2023-03-17T03:02:04.722Z,-0.79
2023-03-17T03:04:39.357Z,-0.83
2023-03-17T03:07:32.546Z,-0.85
2023-03-17T03:10:24.543Z,-0.85
2023-03-17T03:13:16.581Z,-0.88
2023-03-17T03:15:51.569Z,-0.89
2023-03-17T03:18:43.622Z,-0.92
2023-03-17T03:21:36.682Z,-0.92
2023-03-17T03:24:28.799Z,-0.94
2023-03-17T03:27:20.808Z,-0.95
2023-03-17T03:30:14.938Z,-0.96
2023-03-17T03:33:07.846Z,-0.95
2023-03-17T03:35:59.915Z,-0.96
2023-03-17T03:38:52.134Z,-0.98
2023-03-17T03:41:44.383Z,-1.03
2023-03-17T03:44:36.438Z,-1.05
2023-03-17T03:47:28.641Z,-1.09
2023-03-17T03:50:21.200Z,-1.11
2023-03-17T03:53:13.516Z,-1.14
2023-03-17T03:56:05.936Z,-1.17
2023-03-17T03:58:58.006Z,-1.17
2023-03-17T04:01:49.957Z,-1.19
2023-03-17T04:04:42.908Z,-1.23
2023-03-17T04:07:35.090Z,-1.22
2023-03-17T04:10:27.197Z,-1.22
2023-03-17T04:13:04.561Z,-1.25
2023-03-17T04:15:56.797Z,-1.31
2023-03-17T04:18:48.946Z,-1.34
2023-03-17T04:21:41.154Z,-1.35
2023-03-17T04:24:33.181Z,-1.34
2023-03-17T04:27:25.201Z,-1.34
2023-03-17T04:30:17.738Z,-1.35
2023-03-17T04:33:01.032Z,-1.41
2023-03-17T04:35:53.157Z,-1.42
2023-03-17T04:38:45.337Z,-1.44
2023-03-17T04:41:37.544Z,-1.43
2023-03-17T04:44:29.564Z,-1.42
2023-03-17T04:47:21.519Z,-1.41
2023-03-17T04:50:15.072Z,-1.42
2023-03-17T04:53:07.116Z,-1.42
2023-03-17T04:55:59.159Z,-1.43
2023-03-17T04:58:51.136Z,-1.44
2023-03-17T05:01:43.544Z,-1.43
2023-03-17T05:04:35.678Z,-1.42
2023-03-17T05:07:27.844Z,-1.41
2023-03-17T05:10:20.017Z,-1.40
2023-03-17T05:13:12.005Z,-1.38
2023-03-17T05:15:51.786Z,-1.39
2023-03-17T05:18:44.780Z,-1.39
2023-03-17T05:21:37.585Z,-1.42
2023-03-17T05:24:29.569Z,-1.41
2023-03-17T05:27:21.588Z,-1.39
2023-03-17T05:30:15.635Z,-1.35
2023-03-17T05:33:06.485Z,-1.26
2023-03-17T05:35:58.664Z,-1.12
2023-03-17T05:38:50.680Z,-0.85
2023-03-17T05:41:42.767Z,-0.56
2023-03-17T05:44:35.028Z,-0.26
2023-03-17T05:47:27.090Z,0.02
2023-03-17T05:50:19.298Z,0.27
2023-03-17T05:53:11.665Z,0.40
2023-03-17T05:56:03.718Z,0.49
2023-03-17T05:58:55.763Z,0.51
2023-03-17T06:01:38.818Z,0.55
2023-03-17T06:04:30.848Z,0.61
2023-03-17T06:07:22.844Z,0.68
2023-03-17T06:10:15.582Z,0.76
2023-03-17T06:13:07.576Z,0.80
2023-03-17T06:15:59.576Z,0.85
2023-03-17T06:18:51.759Z,0.90
2023-03-17T06:21:43.762Z,0.96
2023-03-17T06:24:35.822Z,1.03
2023-03-17T06:27:27.937Z,1.10
2023-03-17T06:30:20.300Z,1.16
2023-03-17T06:33:12.158Z,1.24
2023-03-17T06:36:04.343Z,1.34
2023-03-17T06:38:56.468Z,1.42
2023-03-17T06:41:48.490Z,1.51
2023-03-17T06:44:40.832Z,1.61
2023-03-17T06:47:34.484Z,1.73
2023-03-17T06:50:27.402Z,1.82
2023-03-17T06:53:19.346Z,1.90
2023-03-17T06:56:23.637Z,2.02
2023-03-17T06:59:23.764Z,2.14
2023-03-17T07:02:15.317Z,2.24
2023-03-17T07:05:08.861Z,2.30
2023-03-17T07:07:46.213Z,2.38
2023-03-17T07:10:38.587Z,2.48
2023-03-17T07:13:32.079Z,2.63
2023-03-17T07:16:24.296Z,2.82
2023-03-17T07:19:16.718Z,2.96
2023-03-17T07:22:09.093Z,3.10
2023-03-17T07:25:01.283Z,3.24
2023-03-17T07:27:56.594Z,3.32
2023-03-17T07:30:48.679Z,3.38
2023-03-17T07:33:41.349Z,3.48
2023-03-17T07:36:33.669Z,3.59
2023-03-17T07:39:25.947Z,3.78
2023-03-17T07:42:18.563Z,3.93
2023-03-17T07:45:12.022Z,4.06
2023-03-17T07:48:05.047Z,4.20
2023-03-17T07:50:57.025Z,4.36
2023-03-17T07:53:50.069Z,4.56
2023-03-17T07:56:42.561Z,4.75
2023-03-17T07:59:34.744Z,4.93
2023-03-17T08:02:26.769Z,5.15
2023-03-17T08:05:19.537Z,5.85
2023-03-17T08:08:12.614Z,7.23
2023-03-17T08:11:06.069Z,8.67
2023-03-17T08:13:58.018Z,10.05
2023-03-17T08:16:50.108Z,11.22
2023-03-17T08:19:42.389Z,12.23
2023-03-17T08:22:34.385Z,13.01
2023-03-17T08:25:26.621Z,13.77
2023-03-17T08:28:18.550Z,14.53
2023-03-17T08:31:15.800Z,15.47
2023-03-17T08:34:08.572Z,16.28
2023-03-17T08:37:00.782Z,17.02
2023-03-17T08:39:52.790Z,17.76
2023-03-17T08:42:45.362Z,18.46
2023-03-17T08:45:37.530Z,18.86
2023-03-17T08:48:30.432Z,18.89
2023-03-17T08:51:24.714Z,18.67
2023-03-17T08:54:17.152Z,19.11
2023-03-17T08:57:09.247Z,19.29
2023-03-17T09:00:01.821Z,19.31
2023-03-17T09:02:53.882Z,19.13
2023-03-17T09:05:45.996Z,19.68
2023-03-17T09:08:39.984Z,20.42
2023-03-17T09:11:33.631Z,20.61
2023-03-17T09:14:25.910Z,20.61
2023-03-17T09:17:17.971Z,20.70
2023-03-17T09:20:13.822Z,20.76
2023-03-17T09:23:08.992Z,21.14
2023-03-17T09:26:01.930Z,21.86
2023-03-17T09:28:54.533Z,22.87
2023-03-17T09:31:47.061Z,23.55
2023-03-17T09:34:39.214Z,24.04
2023-03-17T09:37:31.322Z,24.90
2023-03-17T09:40:32.424Z,25.36
2023-03-17T09:43:33.383Z,26.52
2023-03-17T09:46:39.899Z,27.13
2023-03-17T09:49:44.753Z,27.47
2023-03-17T09:52:37.454Z,28.28
2023-03-17T09:55:33.735Z,28.19
2023-03-17T09:58:30.380Z,28.40
2023-03-17T10:01:23.232Z,28.29
2023-03-17T10:04:22.981Z,27.59
2023-03-17T10:07:20.681Z,27.20
2023-03-17T10:10:05.967Z,27.76
2023-03-17T10:13:05.976Z,27.66
2023-03-17T10:15:48.128Z,27.15
2023-03-17T10:18:46.422Z,26.79
2023-03-17T10:21:46.375Z,26.38
2023-03-17T10:24:44.736Z,25.81
2023-03-17T10:27:39.442Z,25.65
2023-03-17T10:30:34.485Z,25.18
2023-03-17T10:33:27.504Z,24.83
2023-03-17T10:36:37.692Z,24.86
2023-03-17T10:39:32.482Z,25.14
2023-03-17T10:42:27.775Z,24.63
2023-03-17T10:45:28.215Z,24.14
2023-03-17T10:48:20.979Z,23.31
2023-03-17T10:51:21.544Z,22.87
2023-03-17T10:54:19.969Z,22.82
2023-03-17T11:03:14.401Z,23.38
2023-03-17T11:06:10.087Z,23.82
2023-03-17T11:08:51.400Z,23.74
2023-03-17T11:11:47.992Z,23.52
2023-03-17T11:14:44.038Z,23.35
2023-03-17T11:17:55.716Z,23.08
2023-03-17T11:20:57.644Z,22.47
2023-03-17T11:23:53.976Z,21.61
2023-03-17T11:26:55.511Z,21.60
2023-03-17T11:30:15.186Z,21.82
2023-03-17T11:33:14.628Z,21.53
2023-03-17T11:36:17.260Z,20.86
2023-03-17T11:39:17.173Z,20.48
2023-03-17T11:42:17.262Z,20.33
2023-03-17T11:45:19.007Z,20.50
2023-03-17T11:48:22.458Z,20.60
2023-03-17T11:51:27.546Z,20.74
2023-03-17T11:54:25.141Z,20.96
2023-03-17T11:57:05.958Z,21.17
2023-03-17T12:00:03.768Z,21.45
2023-03-17T12:02:49.906Z,21.13
2023-03-17T12:05:42.662Z,21.05
2023-03-17T12:08:42.241Z,21.33
2023-03-17T12:11:40.092Z,21.90
2023-03-17T12:14:38.285Z,21.97
2023-03-17T12:17:37.649Z,21.33
2023-03-17T12:20:36.235Z,20.83
2023-03-17T12:23:35.913Z,20.63
2023-03-17T12:26:39.817Z,20.85
2023-03-17T12:29:43.666Z,20.68
2023-03-17T12:32:24.984Z,20.67
2023-03-17T12:35:29.326Z,20.94
2023-03-17T12:38:27.511Z,21.60
2023-03-17T12:41:36.458Z,22.36
2023-03-17T12:44:49.391Z,23.09
2023-03-17T12:47:56.062Z,23.78
2023-03-17T12:51:10.737Z,23.59
2023-03-17T12:54:01.526Z,23.48
2023-03-17T12:56:54.168Z,23.24
2023-03-17T12:59:48.772Z,22.80
2023-03-17T13:02:42.045Z,21.80
2023-03-17T13:05:37.325Z,21.45
2023-03-17T13:08:33.275Z,20.99
2023-03-17T13:11:47.599Z,20.18
2023-03-17T13:14:45.882Z,19.38
2023-03-17T13:17:38.153Z,19.04
2023-03-17T13:20:43.236Z,18.84
2023-03-17T13:23:41.154Z,18.08
2023-03-17T13:29:48.852Z,17.03
2023-03-17T13:32:42.792Z,16.64
2023-03-17T13:35:44.355Z,16.26
2023-03-17T13:38:48.566Z,15.89
2023-03-17T13:41:44.777Z,15.80
2023-03-17T13:44:48.587Z,15.70
2023-03-17T13:47:43.239Z,15.65
2023-03-17T13:50:36.975Z,15.61
2023-03-17T13:53:33.737Z,15.44
2023-03-17T13:56:27.962Z,15.29
2023-03-17T13:59:18.996Z,15.10
2023-03-17T14:02:18.580Z,14.82
2023-03-17T14:05:19.129Z,14.53
2023-03-17T14:08:20.277Z,14.38
2023-03-17T14:11:34.265Z,14.24
2023-03-17T14:14:36.651Z,14.09
2023-03-17T14:17:34.516Z,14.00
2023-03-17T14:20:28.587Z,14.03
2023-03-17T14:23:21.336Z,14.00
2023-03-17T14:26:13.959Z,14.04
2023-03-17T14:29:07.547Z,13.91
2023-03-17T14:32:06.059Z,13.73
2023-03-17T14:34:59.614Z,13.49
2023-03-17T14:37:51.998Z,13.42
2023-03-17T14:40:44.184Z,13.31
2023-03-17T14:43:37.326Z,13.18
2023-03-17T14:46:32.055Z,13.18
2023-03-17T14:49:27.023Z,13.13
2023-03-17T14:52:25.532Z,13.12
2023-03-17T14:55:19.722Z,13.02
2023-03-17T14:58:11.038Z,12.88
2023-03-17T15:01:08.438Z,12.80
2023-03-17T15:04:08.357Z,12.83
2023-03-17T15:07:02.640Z,12.75
2023-03-17T15:10:00.202Z,12.60
2023-03-17T15:13:03.786Z,12.52
2023-03-17T15:15:58.962Z,12.47
2023-03-17T15:18:57.168Z,12.43
2023-03-17T15:21:49.718Z,12.40
2023-03-17T15:24:44.344Z,12.39
2023-03-17T15:27:20.080Z,12.36
2023-03-17T15:30:13.414Z,12.34
2023-03-17T15:33:04.090Z,12.31
2023-03-17T15:35:56.517Z,12.25
2023-03-17T15:38:48.504Z,12.23
2023-03-17T15:41:40.564Z,12.16
2023-03-17T15:44:32.541Z,12.17
2023-03-17T15:47:28.281Z,12.21
2023-03-17T15:50:25.324Z,12.20
2023-03-17T15:53:17.940Z,12.17
2023-03-17T15:56:18.961Z,12.15
2023-03-17T15:59:11.937Z,12.12
2023-03-17T16:02:04.388Z,12.12
2023-03-17T16:04:57.731Z,12.08
2023-03-17T16:07:50.169Z,12.04
2023-03-17T16:10:42.376Z,12.00
2023-03-17T16:13:34.390Z,11.97
2023-03-17T16:16:32.991Z,11.93
2023-03-17T16:19:25.394Z,11.88
2023-03-17T16:22:38.423Z,11.85
2023-03-17T16:25:22.298Z,11.76
2023-03-17T16:28:18.410Z,11.62
2023-03-17T16:31:23.776Z,11.49
2023-03-17T16:34:20.192Z,11.42
2023-03-17T16:37:15.772Z,11.34
2023-03-17T16:40:19.229Z,11.22
2023-03-17T16:43:25.359Z,11.12
2023-03-17T16:46:08.690Z,11.03
2023-03-17T16:48:49.973Z,10.97
2023-03-17T16:51:24.885Z,10.91
2023-03-17T16:54:16.974Z,10.84
2023-03-17T16:57:10.652Z,10.73
2023-03-17T17:00:02.700Z,10.63
2023-03-17T17:02:55.096Z,10.54
2023-03-17T17:05:47.319Z,10.50
2023-03-17T17:08:39.358Z,10.41
2023-03-17T17:11:31.512Z,10.34
2023-03-17T17:14:23.456Z,10.27
2023-03-17T17:17:15.672Z,10.21
2023-03-17T17:20:14.945Z,10.16
2023-03-17T17:23:07.941Z,10.11
2023-03-17T17:26:00.004Z,10.08
2023-03-17T17:28:52.126Z,10.03
2023-03-17T17:31:44.756Z,9.92
2023-03-17T17:34:36.858Z,9.83
2023-03-17T17:37:28.882Z,9.78
2023-03-17T17:40:24.379Z,9.73
2023-03-17T17:43:18.189Z,9.65
2023-03-17T17:46:20.679Z,9.59
2023-03-17T17:49:14.669Z,9.51
2023-03-17T17:52:06.953Z,9.43
2023-03-17T17:54:59.813Z,9.34
2023-03-17T17:57:52.666Z,9.25
2023-03-17T18:00:45.153Z,9.18
2023-03-17T18:03:37.164Z,9.11
2023-03-17T18:06:29.326Z,9.04
2023-03-17T18:09:21.605Z,8.96
2023-03-17T18:12:14.031Z,8.89
2023-03-17T18:15:07.153Z,8.82
2023-03-17T18:17:59.170Z,8.73
2023-03-17T18:20:53.069Z,8.64
2023-03-17T18:23:30.471Z,8.59
2023-03-17T18:26:23.106Z,8.54
2023-03-17T18:29:15.125Z,8.48
2023-03-17T18:32:07.953Z,8.42
2023-03-17T18:35:04.099Z,8.37
2023-03-17T18:37:57.567Z,8.29
2023-03-17T18:40:49.703Z,8.20
2023-03-17T18:43:44.692Z,8.11
2023-03-17T18:46:36.912Z,8.04
2023-03-17T18:49:29.035Z,7.97
2023-03-17T18:52:21.099Z,7.91
2023-03-17T18:55:15.091Z,7.87
2023-03-17T18:58:01.631Z,7.82
2023-03-17T19:00:54.631Z,7.76
2023-03-17T19:03:46.984Z,7.69
2023-03-17T19:06:39.616Z,7.62
2023-03-17T19:09:31.711Z,7.57
2023-03-17T19:12:23.872Z,7.57
2023-03-17T19:14:59.166Z,7.55
2023-03-17T19:17:51.323Z,7.51
2023-03-17T19:20:45.104Z,7.43
2023-03-17T19:23:38.305Z,7.35
2023-03-17T19:26:32.305Z,7.27
2023-03-17T19:29:24.350Z,7.22
2023-03-17T19:32:17.098Z,7.19
2023-03-17T19:35:10.718Z,7.17
2023-03-17T19:38:04.417Z,7.17
2023-03-17T19:40:56.448Z,7.15
2023-03-17T19:43:48.474Z,7.12
2023-03-17T19:46:40.685Z,7.05
2023-03-17T19:49:21.099Z,7.01
2023-03-17T19:52:13.210Z,7.00
2023-03-17T19:55:08.151Z,6.95
2023-03-17T19:58:00.402Z,6.90
2023-03-17T20:00:52.894Z,6.87
2023-03-17T20:03:44.880Z,6.83
2023-03-17T20:06:37.084Z,6.81
2023-03-17T20:09:30.904Z,6.79
2023-03-17T20:12:23.080Z,6.77
2023-03-17T20:15:16.399Z,6.75
2023-03-17T20:18:08.439Z,6.71
2023-03-17T20:21:01.604Z,6.69
2023-03-17T20:23:53.800Z,6.67
2023-03-17T20:26:46.110Z,6.61
2023-03-17T20:29:28.576Z,6.58
2023-03-17T20:32:21.046Z,6.55
2023-03-17T20:35:13.669Z,6.48
2023-03-17T20:38:07.419Z,6.44
2023-03-17T20:41:09.292Z,6.39
2023-03-17T20:44:02.028Z,6.32
2023-03-17T20:46:54.859Z,6.26
2023-03-17T20:49:47.902Z,6.21
2023-03-17T20:52:41.892Z,6.17
2023-03-17T20:55:33.989Z,6.13
2023-03-17T20:58:26.755Z,6.05
2023-03-17T21:01:21.226Z,5.98
2023-03-17T21:04:15.990Z,5.94
2023-03-17T21:07:08.225Z,5.87
2023-03-17T21:10:02.051Z,5.82
2023-03-17T21:12:54.047Z,5.78
2023-03-17T21:15:45.995Z,5.72
2023-03-17T21:18:38.018Z,5.66
2023-03-17T21:21:15.670Z,5.59
2023-03-17T21:24:09.602Z,5.55
2023-03-17T21:27:02.396Z,5.49
2023-03-17T21:29:54.618Z,5.43
2023-03-17T21:32:46.696Z,5.39
2023-03-17T21:35:38.710Z,5.32
2023-03-17T21:38:32.012Z,5.26
2023-03-17T21:41:33.183Z,5.20
2023-03-17T21:44:25.626Z,5.13
2023-03-17T21:47:17.972Z,5.07
2023-03-17T21:50:11.410Z,5.02
2023-03-17T21:53:03.581Z,4.97
2023-03-17T21:55:55.533Z,4.91
2023-03-17T21:58:49.040Z,4.87
2023-03-17T22:01:41.755Z,4.81
2023-03-17T22:04:33.890Z,4.75
2023-03-17T22:07:26.020Z,4.69
2023-03-17T22:10:18.211Z,4.62
2023-03-17T22:13:10.205Z,4.57
2023-03-17T22:16:02.613Z,4.52
2023-03-17T22:18:54.947Z,4.44
2023-03-17T22:21:47.047Z,4.36
2023-03-17T22:24:39.045Z,4.31
2023-03-17T22:27:31.692Z,4.24
2023-03-17T22:30:25.042Z,4.18
2023-03-17T22:33:17.436Z,4.12
2023-03-17T22:36:10.003Z,4.04
2023-03-17T22:39:02.326Z,3.98
2023-03-17T22:41:54.384Z,3.92
2023-03-17T22:44:46.492Z,3.87
2023-03-17T22:47:38.582Z,3.80
2023-03-17T22:50:31.056Z,3.73
2023-03-17T22:53:23.256Z,3.69
2023-03-17T22:56:16.744Z,3.68
2023-03-17T22:59:08.769Z,3.66
2023-03-17T23:02:01.024Z,3.60
2023-03-17T23:04:53.405Z,3.57
2023-03-17T23:07:50.733Z,3.52
2023-03-17T23:10:43.764Z,3.48
2023-03-17T23:13:36.525Z,3.44
2023-03-17T23:16:28.769Z,3.39
2023-03-17T23:19:21.407Z,3.36
2023-03-17T23:22:13.701Z,3.29
2023-03-17T23:25:06.206Z,3.27
2023-03-17T23:27:58.190Z,3.24
2023-03-17T23:30:50.301Z,3.22
2023-03-17T23:33:42.577Z,3.20
2023-03-17T23:36:24.642Z,3.19
2023-03-17T23:39:16.920Z,3.17
2023-03-17T23:42:09.880Z,3.15
2023-03-17T23:45:02.084Z,3.15
2023-03-17T23:47:55.611Z,3.13
2023-03-17T23:50:48.769Z,3.13
2023-03-17T23:53:41.661Z,3.11
2023-03-17T23:56:33.665Z,3.09
2023-03-17T23:59:25.893Z,3.08
